sensor_id;sensor_type;location;lat;lon;timestamp;pressure;altitude;pressure_sealevel;temperature;humidity
59106;BME280;44891;50.204;8.132;2022-08-21T00:03:14;98378.84;;;14.49;68.50
59106;BME280;44891;50.204;8.132;2022-08-21T00:07:17;98371.88;;;14.38;69.46
59106;BME280;44891;50.204;8.132;2022-08-21T00:11:19;98373.34;;;14.66;68.69
59106;BME280;44891;50.204;8.132;2022-08-21T00:15:24;98377.78;;;14.50;68.99
59106;BME280;44891;50.204;8.132;2022-08-21T00:19:29;98372.22;;;14.47;69.01
59106;BME280;44891;50.204;8.132;2022-08-21T00:23:33;98363.41;;;14.31;69.70
59106;BME280;44891;50.204;8.132;2022-08-21T00:27:36;98369.69;;;14.14;70.09
59106;BME280;44891;50.204;8.132;2022-08-21T00:31:39;98369.59;;;13.94;70.98
59106;BME280;44891;50.204;8.132;2022-08-21T00:35:42;98375.69;;;14.00;71.20
59106;BME280;44891;50.204;8.132;2022-08-21T00:39:45;98370.78;;;14.24;70.05
59106;BME280;44891;50.204;8.132;2022-08-21T00:43:47;98369.47;;;14.26;69.08
59106;BME280;44891;50.204;8.132;2022-08-21T00:47:51;98372.84;;;14.17;69.27
59106;BME280;44891;50.204;8.132;2022-08-21T00:51:59;98361.69;;;14.04;69.91
59106;BME280;44891;50.204;8.132;2022-08-21T00:56:04;98359.88;;;14.10;69.53
59106;BME280;44891;50.204;8.132;2022-08-21T01:00:11;98361.28;;;14.23;69.11
59106;BME280;44891;50.204;8.132;2022-08-21T01:04:14;98365.53;;;14.29;68.67
59106;BME280;44891;50.204;8.132;2022-08-21T01:08:19;98366.69;;;13.96;70.55
59106;BME280;44891;50.204;8.132;2022-08-21T01:12:23;98364.75;;;13.86;70.85
59106;BME280;44891;50.204;8.132;2022-08-21T01:16:25;98372.91;;;13.79;71.67
59106;BME280;44891;50.204;8.132;2022-08-21T01:20:27;98369.03;;;13.87;71.29
59106;BME280;44891;50.204;8.132;2022-08-21T01:24:31;98362.66;;;13.83;70.92
59106;BME280;44891;50.204;8.132;2022-08-21T01:28:48;98366.22;;;13.62;72.21
59106;BME280;44891;50.204;8.132;2022-08-21T01:32:52;98358.00;;;13.58;72.35
59106;BME280;44891;50.204;8.132;2022-08-21T01:36:55;98366.19;;;13.56;72.90
59106;BME280;44891;50.204;8.132;2022-08-21T01:40:58;98365.69;;;13.65;72.39
59106;BME280;44891;50.204;8.132;2022-08-21T01:45:01;98361.03;;;13.77;72.50
59106;BME280;44891;50.204;8.132;2022-08-21T01:49:04;98351.75;;;13.69;72.52
59106;BME280;44891;50.204;8.132;2022-08-21T01:53:07;98354.88;;;13.66;72.53
59106;BME280;44891;50.204;8.132;2022-08-21T01:57:11;98350.63;;;13.60;72.61
59106;BME280;44891;50.204;8.132;2022-08-21T02:01:14;98346.66;;;13.57;72.56
59106;BME280;44891;50.204;8.132;2022-08-21T02:05:17;98344.97;;;13.41;72.59
59106;BME280;44891;50.204;8.132;2022-08-21T02:09:20;98346.81;;;13.41;72.50
59106;BME280;44891;50.204;8.132;2022-08-21T02:13:24;98349.88;;;13.32;72.71
59106;BME280;44891;50.204;8.132;2022-08-21T02:17:27;98337.50;;;13.33;73.00
59106;BME280;44891;50.204;8.132;2022-08-21T02:21:29;98338.28;;;13.33;72.69
59106;BME280;44891;50.204;8.132;2022-08-21T02:25:32;98326.38;;;13.26;72.67
59106;BME280;44891;50.204;8.132;2022-08-21T02:29:35;98338.06;;;13.40;72.90
59106;BME280;44891;50.204;8.132;2022-08-21T02:33:38;98334.84;;;13.28;73.39
59106;BME280;44891;50.204;8.132;2022-08-21T02:37:45;98340.72;;;13.40;73.29
59106;BME280;44891;50.204;8.132;2022-08-21T02:41:48;98343.81;;;13.32;72.73
59106;BME280;44891;50.204;8.132;2022-08-21T02:45:52;98337.75;;;13.31;73.31
59106;BME280;44891;50.204;8.132;2022-08-21T02:49:54;98340.72;;;13.08;73.98
59106;BME280;44891;50.204;8.132;2022-08-21T02:53:56;98342.34;;;12.87;74.65
59106;BME280;44891;50.204;8.132;2022-08-21T02:57:59;98340.34;;;12.99;74.96
59106;BME280;44891;50.204;8.132;2022-08-21T03:02:03;98341.19;;;13.05;74.65
59106;BME280;44891;50.204;8.132;2022-08-21T03:06:06;98339.72;;;12.87;75.76
59106;BME280;44891;50.204;8.132;2022-08-21T03:10:10;98331.97;;;13.02;74.94
59106;BME280;44891;50.204;8.132;2022-08-21T03:14:12;98330.81;;;12.93;74.97
59106;BME280;44891;50.204;8.132;2022-08-21T03:18:16;98334.16;;;12.84;74.84
59106;BME280;44891;50.204;8.132;2022-08-21T03:22:18;98334.09;;;12.78;75.01
59106;BME280;44891;50.204;8.132;2022-08-21T03:26:21;98326.75;;;12.80;75.61
59106;BME280;44891;50.204;8.132;2022-08-21T03:30:23;98324.41;;;12.84;74.68
59106;BME280;44891;50.204;8.132;2022-08-21T03:34:26;98320.66;;;12.75;75.88
59106;BME280;44891;50.204;8.132;2022-08-21T03:38:30;98316.78;;;12.56;76.77
59106;BME280;44891;50.204;8.132;2022-08-21T03:42:33;98324.34;;;12.79;76.49
59106;BME280;44891;50.204;8.132;2022-08-21T03:46:35;98325.78;;;12.92;76.07
59106;BME280;44891;50.204;8.132;2022-08-21T03:50:41;98325.47;;;12.56;76.86
59106;BME280;44891;50.204;8.132;2022-08-21T03:54:43;98325.66;;;12.76;76.20
59106;BME280;44891;50.204;8.132;2022-08-21T03:58:45;98328.75;;;12.95;75.33
59106;BME280;44891;50.204;8.132;2022-08-21T04:02:47;98335.09;;;12.72;74.83
59106;BME280;44891;50.204;8.132;2022-08-21T04:06:50;98339.31;;;12.73;75.32
59106;BME280;44891;50.204;8.132;2022-08-21T04:10:55;98343.59;;;12.52;76.54
59106;BME280;44891;50.204;8.132;2022-08-21T04:14:58;98353.19;;;12.64;75.68
59106;BME280;44891;50.204;8.132;2022-08-21T04:19:02;98354.69;;;12.55;76.84
59106;BME280;44891;50.204;8.132;2022-08-21T04:23:06;98353.28;;;12.47;76.66
59106;BME280;44891;50.204;8.132;2022-08-21T04:27:08;98358.03;;;12.72;75.58
59106;BME280;44891;50.204;8.132;2022-08-21T04:31:10;98366.31;;;12.59;76.42
59106;BME280;44891;50.204;8.132;2022-08-21T04:35:14;98372.69;;;12.63;75.98
59106;BME280;44891;50.204;8.132;2022-08-21T04:39:19;98374.81;;;12.66;76.12
59106;BME280;44891;50.204;8.132;2022-08-21T04:43:21;98375.59;;;12.61;77.21
59106;BME280;44891;50.204;8.132;2022-08-21T04:47:24;98381.69;;;12.67;76.96
59106;BME280;44891;50.204;8.132;2022-08-21T04:51:29;98378.03;;;12.95;75.70
59106;BME280;44891;50.204;8.132;2022-08-21T04:55:33;98385.88;;;12.90;75.45
59106;BME280;44891;50.204;8.132;2022-08-21T04:59:38;98373.69;;;12.84;74.81
59106;BME280;44891;50.204;8.132;2022-08-21T05:03:42;98384.81;;;13.18;74.68
59106;BME280;44891;50.204;8.132;2022-08-21T05:07:44;98374.94;;;13.03;75.79
59106;BME280;44891;50.204;8.132;2022-08-21T05:11:48;98377.97;;;13.17;76.10
59106;BME280;44891;50.204;8.132;2022-08-21T05:15:52;98381.84;;;13.36;75.49
59106;BME280;44891;50.204;8.132;2022-08-21T05:19:54;98385.31;;;13.42;74.84
59106;BME280;44891;50.204;8.132;2022-08-21T05:23:56;98388.66;;;13.64;74.27
59106;BME280;44891;50.204;8.132;2022-08-21T05:27:59;98387.09;;;13.68;74.54
59106;BME280;44891;50.204;8.132;2022-08-21T05:32:08;98388.25;;;13.45;74.89
59106;BME280;44891;50.204;8.132;2022-08-21T05:36:10;98391.19;;;13.49;75.43
59106;BME280;44891;50.204;8.132;2022-08-21T05:40:13;98389.38;;;13.97;74.13
59106;BME280;44891;50.204;8.132;2022-08-21T05:44:16;98395.66;;;14.38;72.81
59106;BME280;44891;50.204;8.132;2022-08-21T05:48:20;98386.78;;;14.49;72.10
59106;BME280;44891;50.204;8.132;2022-08-21T05:52:23;98389.47;;;14.59;71.92
59106;BME280;44891;50.204;8.132;2022-08-21T05:56:25;98400.56;;;14.66;71.83
59106;BME280;44891;50.204;8.132;2022-08-21T06:00:29;98364.84;;;14.59;72.12
59106;BME280;44891;50.204;8.132;2022-08-21T06:04:35;98385.06;;;15.01;71.35
59106;BME280;44891;50.204;8.132;2022-08-21T06:08:37;98393.28;;;15.19;71.61
59106;BME280;44891;50.204;8.132;2022-08-21T06:12:40;98367.88;;;15.08;71.30
59106;BME280;44891;50.204;8.132;2022-08-21T06:16:44;98388.53;;;15.47;70.98
59106;BME280;44891;50.204;8.132;2022-08-21T06:20:46;98396.22;;;15.74;70.49
59106;BME280;44891;50.204;8.132;2022-08-21T06:24:50;98385.31;;;15.91;70.34
59106;BME280;44891;50.204;8.132;2022-08-21T06:28:52;98377.06;;;16.08;69.73
59106;BME280;44891;50.204;8.132;2022-08-21T06:32:56;98331.25;;;15.97;70.26
59106;BME280;44891;50.204;8.132;2022-08-21T06:36:59;98367.66;;;16.46;69.76
59106;BME280;44891;50.204;8.132;2022-08-21T06:41:06;98358.03;;;16.65;68.22
59106;BME280;44891;50.204;8.132;2022-08-21T06:45:09;98372.94;;;17.00;67.58
59106;BME280;44891;50.204;8.132;2022-08-21T06:49:12;98379.84;;;17.35;67.39
59106;BME280;44891;50.204;8.132;2022-08-21T06:53:18;98379.63;;;17.61;66.08
59106;BME280;44891;50.204;8.132;2022-08-21T06:57:21;98369.94;;;17.80;64.67
59106;BME280;44891;50.204;8.132;2022-08-21T07:01:25;98378.66;;;18.10;63.84
59106;BME280;44891;50.204;8.132;2022-08-21T07:05:29;98340.09;;;18.12;63.19
59106;BME280;44891;50.204;8.132;2022-08-21T07:09:32;98369.97;;;18.47;62.50
59106;BME280;44891;50.204;8.132;2022-08-21T07:13:35;98382.25;;;18.67;61.90
59106;BME280;44891;50.204;8.132;2022-08-21T07:17:37;98384.63;;;18.87;61.46
59106;BME280;44891;50.204;8.132;2022-08-21T07:21:42;98379.47;;;18.96;61.04
59106;BME280;44891;50.204;8.132;2022-08-21T07:25:44;98370.81;;;19.04;59.91
59106;BME280;44891;50.204;8.132;2022-08-21T07:29:47;98379.66;;;19.18;60.13
59106;BME280;44891;50.204;8.132;2022-08-21T07:33:49;98386.88;;;19.50;59.21
59106;BME280;44891;50.204;8.132;2022-08-21T07:37:53;98365.91;;;19.63;58.62
59106;BME280;44891;50.204;8.132;2022-08-21T07:41:55;98375.72;;;19.81;58.78
59106;BME280;44891;50.204;8.132;2022-08-21T07:45:57;98369.72;;;20.03;58.03
59106;BME280;44891;50.204;8.132;2022-08-21T07:50:00;98368.69;;;20.26;57.43
59106;BME280;44891;50.204;8.132;2022-08-21T07:54:03;98369.69;;;20.44;56.86
59106;BME280;44891;50.204;8.132;2022-08-21T07:58:05;98356.03;;;20.59;56.19
59106;BME280;44891;50.204;8.132;2022-08-21T08:02:08;98357.19;;;20.81;56.38
59106;BME280;44891;50.204;8.132;2022-08-21T08:06:11;98359.81;;;20.95;55.51
59106;BME280;44891;50.204;8.132;2022-08-21T08:10:16;98348.72;;;21.01;54.85
59106;BME280;44891;50.204;8.132;2022-08-21T08:14:19;98350.47;;;21.06;54.61
59106;BME280;44891;50.204;8.132;2022-08-21T08:18:21;98344.69;;;21.12;54.56
59106;BME280;44891;50.204;8.132;2022-08-21T08:22:23;98337.63;;;21.30;52.96
59106;BME280;44891;50.204;8.132;2022-08-21T08:26:27;98329.88;;;21.51;52.63
59106;BME280;44891;50.204;8.132;2022-08-21T08:30:29;98327.84;;;21.88;50.78
59106;BME280;44891;50.204;8.132;2022-08-21T08:34:32;98342.34;;;21.95;50.92
59106;BME280;44891;50.204;8.132;2022-08-21T08:38:34;98326.88;;;21.84;51.33
59106;BME280;44891;50.204;8.132;2022-08-21T08:42:39;98264.56;;;21.66;50.44
59106;BME280;44891;50.204;8.132;2022-08-21T08:46:44;98326.41;;;22.13;49.68
59106;BME280;44891;50.204;8.132;2022-08-21T08:50:49;98333.66;;;22.30;47.39
59106;BME280;44891;50.204;8.132;2022-08-21T08:54:59;98328.22;;;22.69;47.52
59106;BME280;44891;50.204;8.132;2022-08-21T08:59:08;98309.47;;;23.04;45.83
59106;BME280;44891;50.204;8.132;2022-08-21T09:03:13;98336.41;;;23.25;44.89
59106;BME280;44891;50.204;8.132;2022-08-21T09:07:25;98335.66;;;22.98;46.15
59106;BME280;44891;50.204;8.132;2022-08-21T09:11:30;98323.50;;;23.18;45.77
59106;BME280;44891;50.204;8.132;2022-08-21T09:15:46;98305.78;;;23.34;45.76
59106;BME280;44891;50.204;8.132;2022-08-21T09:19:59;98321.34;;;23.58;45.28
59106;BME280;44891;50.204;8.132;2022-08-21T09:24:19;98318.78;;;23.79;45.84
59106;BME280;44891;50.204;8.132;2022-08-21T09:28:24;98315.91;;;24.14;44.51
59106;BME280;44891;50.204;8.132;2022-08-21T09:32:30;98303.81;;;24.29;44.75
59106;BME280;44891;50.204;8.132;2022-08-21T09:36:42;98322.91;;;24.06;44.05
59106;BME280;44891;50.204;8.132;2022-08-21T09:40:46;98306.59;;;23.91;43.64
59106;BME280;44891;50.204;8.132;2022-08-21T09:45:07;98304.97;;;23.98;42.69
59106;BME280;44891;50.204;8.132;2022-08-21T09:49:11;98307.66;;;24.49;41.94
59106;BME280;44891;50.204;8.132;2022-08-21T09:53:17;98298.09;;;24.60;41.34
59106;BME280;44891;50.204;8.132;2022-08-21T09:57:23;98286.31;;;23.64;43.57
59106;BME280;44891;50.204;8.132;2022-08-21T10:01:49;98297.50;;;23.57;42.47
59106;BME280;44891;50.204;8.132;2022-08-21T10:05:56;98264.16;;;23.46;43.19
59106;BME280;44891;50.204;8.132;2022-08-21T10:10:02;98279.66;;;23.78;42.66
59106;BME280;44891;50.204;8.132;2022-08-21T10:14:13;98276.88;;;23.66;42.00
59106;BME280;44891;50.204;8.132;2022-08-21T10:18:23;98283.53;;;23.51;42.36
59106;BME280;44891;50.204;8.132;2022-08-21T10:22:36;98280.94;;;23.72;42.06
59106;BME280;44891;50.204;8.132;2022-08-21T10:26:47;98263.44;;;23.96;41.05
59106;BME280;44891;50.204;8.132;2022-08-21T10:30:59;98266.31;;;24.20;41.41
59106;BME280;44891;50.204;8.132;2022-08-21T10:35:09;98261.66;;;24.29;39.78
59106;BME280;44891;50.204;8.132;2022-08-21T10:39:21;98254.94;;;24.65;39.04
59106;BME280;44891;50.204;8.132;2022-08-21T10:43:35;98248.31;;;24.62;38.81
59106;BME280;44891;50.204;8.132;2022-08-21T10:47:44;98185.34;;;24.18;38.35
59106;BME280;44891;50.204;8.132;2022-08-21T10:51:54;98236.78;;;24.83;38.09
59106;BME280;44891;50.204;8.132;2022-08-21T10:56:02;98220.53;;;24.79;37.92
59106;BME280;44891;50.204;8.132;2022-08-21T11:00:10;98233.31;;;24.94;36.90
59106;BME280;44891;50.204;8.132;2022-08-21T11:04:18;98207.47;;;25.02;37.34
59106;BME280;44891;50.204;8.132;2022-08-21T11:08:26;98209.38;;;25.02;37.33
59106;BME280;44891;50.204;8.132;2022-08-21T11:12:37;98228.72;;;25.28;36.73
59106;BME280;44891;50.204;8.132;2022-08-21T11:16:44;98197.94;;;24.92;36.96
59106;BME280;44891;50.204;8.132;2022-08-21T11:20:51;98220.13;;;25.96;36.15
59106;BME280;44891;50.204;8.132;2022-08-21T11:25:03;98223.44;;;26.58;35.10
59106;BME280;44891;50.204;8.132;2022-08-21T11:29:14;98213.56;;;26.62;34.97
59106;BME280;44891;50.204;8.132;2022-08-21T11:33:29;98224.00;;;26.63;33.10
59106;BME280;44891;50.204;8.132;2022-08-21T11:37:50;98219.78;;;26.38;34.28
59106;BME280;44891;50.204;8.132;2022-08-21T11:42:02;98193.97;;;26.93;33.98
59106;BME280;44891;50.204;8.132;2022-08-21T11:46:20;98179.38;;;27.25;32.77
59106;BME280;44891;50.204;8.132;2022-08-21T11:50:28;98224.50;;;27.60;33.00
59106;BME280;44891;50.204;8.132;2022-08-21T11:54:37;98188.59;;;27.72;31.62
59106;BME280;44891;50.204;8.132;2022-08-21T11:58:45;98216.69;;;28.06;32.18
59106;BME280;44891;50.204;8.132;2022-08-21T12:02:53;98181.69;;;27.58;31.79
59106;BME280;44891;50.204;8.132;2022-08-21T12:07:10;98190.19;;;28.11;31.18
59106;BME280;44891;50.204;8.132;2022-08-21T12:11:23;98199.38;;;27.40;33.00
59106;BME280;44891;50.204;8.132;2022-08-21T12:15:27;98196.25;;;27.06;32.36
59106;BME280;44891;50.204;8.132;2022-08-21T12:19:32;98194.41;;;26.95;32.55
59106;BME280;44891;50.204;8.132;2022-08-21T12:23:46;98201.91;;;27.17;32.44
59106;BME280;44891;50.204;8.132;2022-08-21T12:27:52;98160.84;;;26.92;32.48
59106;BME280;44891;50.204;8.132;2022-08-21T12:31:57;98200.78;;;27.50;31.41
59106;BME280;44891;50.204;8.132;2022-08-21T12:36:05;98188.31;;;27.61;30.32
59106;BME280;44891;50.204;8.132;2022-08-21T12:40:12;98192.81;;;27.88;30.85
59106;BME280;44891;50.204;8.132;2022-08-21T12:44:20;98194.91;;;27.79;30.28
59106;BME280;44891;50.204;8.132;2022-08-21T12:48:26;98192.88;;;27.25;29.60
59106;BME280;44891;50.204;8.132;2022-08-21T12:52:35;98185.75;;;28.00;30.76
59106;BME280;44891;50.204;8.132;2022-08-21T12:56:40;98176.19;;;28.41;29.17
59106;BME280;44891;50.204;8.132;2022-08-21T13:00:48;98178.88;;;28.41;28.63
59106;BME280;44891;50.204;8.132;2022-08-21T13:04:52;98150.41;;;28.66;28.21
59106;BME280;44891;50.204;8.132;2022-08-21T13:09:04;98130.09;;;28.53;28.21
59106;BME280;44891;50.204;8.132;2022-08-21T13:13:10;98116.38;;;28.42;28.22
59106;BME280;44891;50.204;8.132;2022-08-21T13:17:18;98156.91;;;28.42;29.35
59106;BME280;44891;50.204;8.132;2022-08-21T13:21:21;98152.53;;;28.18;29.25
59106;BME280;44891;50.204;8.132;2022-08-21T13:25:35;98155.34;;;28.41;28.93
59106;BME280;44891;50.204;8.132;2022-08-21T13:29:38;98118.25;;;28.84;29.09
59106;BME280;44891;50.204;8.132;2022-08-21T13:33:41;98128.09;;;28.92;28.33
59106;BME280;44891;50.204;8.132;2022-08-21T13:37:44;98139.09;;;28.61;28.48
59106;BME280;44891;50.204;8.132;2022-08-21T13:41:52;98124.72;;;28.99;28.53
59106;BME280;44891;50.204;8.132;2022-08-21T13:45:56;98137.72;;;29.39;27.19
59106;BME280;44891;50.204;8.132;2022-08-21T13:49:59;98136.88;;;29.35;26.64
59106;BME280;44891;50.204;8.132;2022-08-21T13:54:13;98141.41;;;29.81;25.93
59106;BME280;44891;50.204;8.132;2022-08-21T13:58:25;98125.25;;;29.88;26.37
59106;BME280;44891;50.204;8.132;2022-08-21T14:02:28;98117.06;;;30.14;25.53
59106;BME280;44891;50.204;8.132;2022-08-21T14:06:34;98132.75;;;30.69;24.35
59106;BME280;44891;50.204;8.132;2022-08-21T14:10:43;98120.47;;;30.82;25.45
59106;BME280;44891;50.204;8.132;2022-08-21T14:14:47;98110.19;;;30.57;25.95
59106;BME280;44891;50.204;8.132;2022-08-21T14:18:55;98098.16;;;29.88;24.97
59106;BME280;44891;50.204;8.132;2022-08-21T14:23:09;98111.94;;;30.39;26.38
59106;BME280;44891;50.204;8.132;2022-08-21T14:27:17;98122.03;;;31.27;23.28
59106;BME280;44891;50.204;8.132;2022-08-21T14:31:21;98107.09;;;32.56;23.50
59106;BME280;44891;50.204;8.132;2022-08-21T14:35:30;98091.94;;;32.66;23.07
59106;BME280;44891;50.204;8.132;2022-08-21T14:39:33;98108.63;;;32.43;22.65
59106;BME280;44891;50.204;8.132;2022-08-21T14:43:35;98055.72;;;33.54;21.53
59106;BME280;44891;50.204;8.132;2022-08-21T14:47:39;98068.22;;;33.13;21.60
59106;BME280;44891;50.204;8.132;2022-08-21T14:51:41;98059.84;;;33.91;20.80
59106;BME280;44891;50.204;8.132;2022-08-21T14:55:44;98087.09;;;33.84;20.77
59106;BME280;44891;50.204;8.132;2022-08-21T15:00:09;98094.06;;;33.99;22.22
59106;BME280;44891;50.204;8.132;2022-08-21T15:04:12;98093.00;;;33.68;21.88
59106;BME280;44891;50.204;8.132;2022-08-21T15:08:15;98062.81;;;32.98;20.68
59106;BME280;44891;50.204;8.132;2022-08-21T15:12:17;98100.44;;;33.53;20.08
59106;BME280;44891;50.204;8.132;2022-08-21T15:16:20;98076.00;;;32.68;20.88
59106;BME280;44891;50.204;8.132;2022-08-21T15:20:23;98099.31;;;33.01;19.95
59106;BME280;44891;50.204;8.132;2022-08-21T15:24:25;98083.78;;;32.94;22.64
59106;BME280;44891;50.204;8.132;2022-08-21T15:28:29;98098.91;;;34.37;20.95
59106;BME280;44891;50.204;8.132;2022-08-21T15:32:31;98067.84;;;34.79;21.03
59106;BME280;44891;50.204;8.132;2022-08-21T15:36:35;98091.47;;;36.09;19.64
59106;BME280;44891;50.204;8.132;2022-08-21T15:40:37;98076.09;;;36.19;18.51
59106;BME280;44891;50.204;8.132;2022-08-21T15:44:41;98077.16;;;35.67;18.15
59106;BME280;44891;50.204;8.132;2022-08-21T15:48:43;98077.06;;;35.75;18.41
59106;BME280;44891;50.204;8.132;2022-08-21T15:52:48;98078.69;;;35.68;19.11
59106;BME280;44891;50.204;8.132;2022-08-21T15:56:50;98092.53;;;35.51;18.31
59106;BME280;44891;50.204;8.132;2022-08-21T16:00:52;98087.97;;;34.99;18.47
59106;BME280;44891;50.204;8.132;2022-08-21T16:04:55;98077.19;;;32.92;20.79
59106;BME280;44891;50.204;8.132;2022-08-21T16:08:59;98045.19;;;32.00;21.79
59106;BME280;44891;50.204;8.132;2022-08-21T16:13:04;98085.84;;;30.65;23.31
59106;BME280;44891;50.204;8.132;2022-08-21T16:17:07;98082.91;;;30.43;23.65
59106;BME280;44891;50.204;8.132;2022-08-21T16:21:09;98080.41;;;30.65;23.88
59106;BME280;44891;50.204;8.132;2022-08-21T16:25:14;98073.03;;;30.62;23.13
59106;BME280;44891;50.204;8.132;2022-08-21T16:29:17;98038.75;;;29.68;23.75
59106;BME280;44891;50.204;8.132;2022-08-21T16:33:22;98063.56;;;29.74;24.48
59106;BME280;44891;50.204;8.132;2022-08-21T16:37:26;98071.91;;;29.58;24.47
59106;BME280;44891;50.204;8.132;2022-08-21T16:41:32;98064.00;;;29.19;25.06
59106;BME280;44891;50.204;8.132;2022-08-21T16:45:35;98047.44;;;28.98;25.71
59106;BME280;44891;50.204;8.132;2022-08-21T16:49:37;98055.97;;;29.00;24.79
59106;BME280;44891;50.204;8.132;2022-08-21T16:53:39;98016.66;;;28.57;25.99
59106;BME280;44891;50.204;8.132;2022-08-21T16:57:42;98055.31;;;28.18;27.38
59106;BME280;44891;50.204;8.132;2022-08-21T17:01:44;98056.00;;;26.71;30.76
59106;BME280;44891;50.204;8.132;2022-08-21T17:05:47;98059.47;;;26.72;31.56
59106;BME280;44891;50.204;8.132;2022-08-21T17:09:49;98005.34;;;26.01;31.13
59106;BME280;44891;50.204;8.132;2022-08-21T17:13:54;98032.19;;;26.58;30.91
59106;BME280;44891;50.204;8.132;2022-08-21T17:17:56;97989.00;;;26.22;32.31
59106;BME280;44891;50.204;8.132;2022-08-21T17:21:58;98009.03;;;25.81;31.70
59106;BME280;44891;50.204;8.132;2022-08-21T17:26:01;98000.00;;;25.61;31.50
59106;BME280;44891;50.204;8.132;2022-08-21T17:30:06;98051.94;;;26.18;31.40
59106;BME280;44891;50.204;8.132;2022-08-21T17:34:08;98057.00;;;26.35;31.64
59106;BME280;44891;50.204;8.132;2022-08-21T17:38:11;98047.94;;;26.27;31.58
59106;BME280;44891;50.204;8.132;2022-08-21T17:42:14;98038.00;;;26.00;32.03
59106;BME280;44891;50.204;8.132;2022-08-21T17:46:20;97999.00;;;25.26;33.10
59106;BME280;44891;50.204;8.132;2022-08-21T17:50:22;98023.78;;;25.19;32.83
59106;BME280;44891;50.204;8.132;2022-08-21T17:54:25;98036.66;;;25.66;32.82
59106;BME280;44891;50.204;8.132;2022-08-21T17:58:27;98042.84;;;25.54;33.49
59106;BME280;44891;50.204;8.132;2022-08-21T18:02:32;98009.72;;;25.38;34.00
59106;BME280;44891;50.204;8.132;2022-08-21T18:06:36;98040.72;;;25.47;34.39
59106;BME280;44891;50.204;8.132;2022-08-21T18:10:40;97967.25;;;24.79;35.09
59106;BME280;44891;50.204;8.132;2022-08-21T18:14:43;98044.28;;;25.11;35.88
59106;BME280;44891;50.204;8.132;2022-08-21T18:18:47;98056.88;;;24.62;36.12
59106;BME280;44891;50.204;8.132;2022-08-21T18:22:51;98064.72;;;24.67;36.02
59106;BME280;44891;50.204;8.132;2022-08-21T18:26:53;98001.63;;;24.15;37.21
59106;BME280;44891;50.204;8.132;2022-08-21T18:30:56;98050.69;;;24.37;37.28
59106;BME280;44891;50.204;8.132;2022-08-21T18:35:01;98058.06;;;24.07;36.96
59106;BME280;44891;50.204;8.132;2022-08-21T18:39:03;98083.56;;;24.13;38.63
59106;BME280;44891;50.204;8.132;2022-08-21T18:43:06;98081.44;;;23.14;39.79
59106;BME280;44891;50.204;8.132;2022-08-21T18:47:14;98036.75;;;22.59;40.48
59106;BME280;44891;50.204;8.132;2022-08-21T18:51:23;98081.78;;;22.66;41.17
59106;BME280;44891;50.204;8.132;2022-08-21T18:55:25;98094.47;;;22.22;41.98
59106;BME280;44891;50.204;8.132;2022-08-21T18:59:29;98071.19;;;21.88;42.96
59106;BME280;44891;50.204;8.132;2022-08-21T19:03:31;98104.69;;;21.94;43.43
59106;BME280;44891;50.204;8.132;2022-08-21T19:07:35;98057.78;;;21.44;43.30
59106;BME280;44891;50.204;8.132;2022-08-21T19:11:39;98111.41;;;21.57;43.87
59106;BME280;44891;50.204;8.132;2022-08-21T19:15:42;98047.13;;;20.87;44.69
59106;BME280;44891;50.204;8.132;2022-08-21T19:19:46;98118.16;;;21.06;45.18
59106;BME280;44891;50.204;8.132;2022-08-21T19:23:50;98029.91;;;20.62;45.48
59106;BME280;44891;50.204;8.132;2022-08-21T19:27:54;98081.56;;;21.06;45.09
59106;BME280;44891;50.204;8.132;2022-08-21T19:31:56;98121.72;;;20.92;45.85
59106;BME280;44891;50.204;8.132;2022-08-21T19:35:58;98124.44;;;20.70;46.04
59106;BME280;44891;50.204;8.132;2022-08-21T19:40:03;98071.53;;;20.19;46.53
59106;BME280;44891;50.204;8.132;2022-08-21T19:44:08;98125.06;;;20.67;45.57
59106;BME280;44891;50.204;8.132;2022-08-21T19:48:12;98130.22;;;20.41;46.58
59106;BME280;44891;50.204;8.132;2022-08-21T19:52:14;98132.00;;;20.32;47.55
59106;BME280;44891;50.204;8.132;2022-08-21T19:56:21;98114.00;;;19.93;48.23
59106;BME280;44891;50.204;8.132;2022-08-21T20:00:24;98134.06;;;20.13;48.16
59106;BME280;44891;50.204;8.132;2022-08-21T20:04:26;98150.63;;;20.23;48.31
59106;BME280;44891;50.204;8.132;2022-08-21T20:08:29;98130.69;;;20.21;48.26
59106;BME280;44891;50.204;8.132;2022-08-21T20:12:33;98151.94;;;20.12;48.76
59106;BME280;44891;50.204;8.132;2022-08-21T20:16:35;98108.94;;;19.69;48.81
59106;BME280;44891;50.204;8.132;2022-08-21T20:20:39;98088.34;;;19.33;49.07
59106;BME280;44891;50.204;8.132;2022-08-21T20:24:42;98160.44;;;19.50;49.61
59106;BME280;44891;50.204;8.132;2022-08-21T20:28:45;98132.91;;;19.27;50.14
59106;BME280;44891;50.204;8.132;2022-08-21T20:32:48;98113.31;;;19.23;49.86
59106;BME280;44891;50.204;8.132;2022-08-21T20:36:50;98107.59;;;19.02;50.33
59106;BME280;44891;50.204;8.132;2022-08-21T20:40:53;98139.81;;;18.87;51.01
59106;BME280;44891;50.204;8.132;2022-08-21T20:44:57;98077.78;;;18.27;51.88
59106;BME280;44891;50.204;8.132;2022-08-21T20:49:01;98176.94;;;18.79;51.85
59106;BME280;44891;50.204;8.132;2022-08-21T20:53:11;98183.06;;;18.60;52.52
59106;BME280;44891;50.204;8.132;2022-08-21T20:57:17;98176.50;;;18.39;53.15
59106;BME280;44891;50.204;8.132;2022-08-21T21:01:24;98181.50;;;18.59;52.23
59106;BME280;44891;50.204;8.132;2022-08-21T21:05:35;98182.34;;;18.73;52.24
59106;BME280;44891;50.204;8.132;2022-08-21T21:09:44;98182.03;;;18.42;52.71
59106;BME280;44891;50.204;8.132;2022-08-21T21:13:51;98174.94;;;18.19;53.42
59106;BME280;44891;50.204;8.132;2022-08-21T21:18:00;98125.91;;;17.50;54.55
59106;BME280;44891;50.204;8.132;2022-08-21T21:22:07;98178.28;;;17.87;54.62
59106;BME280;44891;50.204;8.132;2022-08-21T21:26:15;98190.16;;;17.94;54.07
59106;BME280;44891;50.204;8.132;2022-08-21T21:30:21;98177.66;;;17.52;55.06
59106;BME280;44891;50.204;8.132;2022-08-21T21:34:26;98116.09;;;17.02;55.35
59106;BME280;44891;50.204;8.132;2022-08-21T21:38:46;98182.03;;;17.62;54.69